sensor_id;sensor_type;location;lat;lon;timestamp;pressure;altitude;pressure_sealevel;temperature;humidity
36242;BME280;22283;42.748;12.732;2023-04-25T00:03:21;97522.41;;;8.61;100.00
36242;BME280;22283;42.748;12.732;2023-04-25T00:08:22;97509.03;;;8.41;100.00
36242;BME280;22283;42.748;12.732;2023-04-25T00:13:23;97505.75;;;8.61;100.00
36242;BME280;22283;42.748;12.732;2023-04-25T00:18:26;97510.59;;;8.67;100.00
36242;BME280;22283;42.748;12.732;2023-04-25T00:23:29;97505.06;;;8.70;100.00
36242;BME280;22283;42.748;12.732;2023-04-25T00:28:30;97498.47;;;8.65;100.00
36242;BME280;22283;42.748;12.732;2023-04-25T00:33:31;97490.16;;;8.58;100.00
36242;BME280;22283;42.748;12.732;2023-04-25T00:38:31;97487.66;;;8.56;100.00
36242;BME280;22283;42.748;12.732;2023-04-25T00:43:33;97483.91;;;8.48;100.00
36242;BME280;22283;42.748;12.732;2023-04-25T00:48:34;97474.56;;;8.55;100.00
36242;BME280;22283;42.748;12.732;2023-04-25T00:53:35;97465.75;;;8.67;100.00
36242;BME280;22283;42.748;12.732;2023-04-25T00:58:37;97469.81;;;8.60;100.00
36242;BME280;22283;42.748;12.732;2023-04-25T01:03:39;97459.00;;;8.52;100.00
36242;BME280;22283;42.748;12.732;2023-04-25T01:08:43;97448.72;;;8.60;100.00
36242;BME280;22283;42.748;12.732;2023-04-25T01:13:43;97444.66;;;8.67;100.00
36242;BME280;22283;42.748;12.732;2023-04-25T01:18:45;97457.25;;;8.64;100.00
36242;BME280;22283;42.748;12.732;2023-04-25T01:23:46;97465.19;;;8.40;100.00
36242;BME280;22283;42.748;12.732;2023-04-25T01:28:48;97457.03;;;8.19;100.00
36242;BME280;22283;42.748;12.732;2023-04-25T01:33:49;97460.50;;;8.08;100.00
36242;BME280;22283;42.748;12.732;2023-04-25T01:38:50;97464.53;;;8.01;100.00
36242;BME280;22283;42.748;12.732;2023-04-25T01:43:51;97458.41;;;8.00;100.00
36242;BME280;22283;42.748;12.732;2023-04-25T01:48:52;97464.31;;;8.04;100.00
36242;BME280;22283;42.748;12.732;2023-04-25T01:53:53;97459.63;;;8.07;100.00
36242;BME280;22283;42.748;12.732;2023-04-25T01:58:54;97465.75;;;8.08;100.00
36242;BME280;22283;42.748;12.732;2023-04-25T02:04:17;97452.91;;;8.03;100.00
36242;BME280;22283;42.748;12.732;2023-04-25T02:09:18;97452.28;;;8.00;100.00
36242;BME280;22283;42.748;12.732;2023-04-25T02:14:25;97442.94;;;7.96;100.00
36242;BME280;22283;42.748;12.732;2023-04-25T02:19:36;97429.59;;;8.10;100.00
36242;BME280;22283;42.748;12.732;2023-04-25T02:24:37;97446.13;;;8.12;100.00
36242;BME280;22283;42.748;12.732;2023-04-25T02:29:38;97436.44;;;8.12;100.00
36242;BME280;22283;42.748;12.732;2023-04-25T02:34:39;97438.81;;;8.04;100.00
36242;BME280;22283;42.748;12.732;2023-04-25T02:39:40;97435.63;;;7.99;100.00
36242;BME280;22283;42.748;12.732;2023-04-25T02:44:40;97429.75;;;7.96;100.00
36242;BME280;22283;42.748;12.732;2023-04-25T02:49:41;97437.38;;;7.87;100.00
36242;BME280;22283;42.748;12.732;2023-04-25T02:54:42;97435.94;;;7.83;100.00
36242;BME280;22283;42.748;12.732;2023-04-25T02:59:43;97437.56;;;7.73;100.00
36242;BME280;22283;42.748;12.732;2023-04-25T03:04:44;97425.03;;;7.64;100.00
36242;BME280;22283;42.748;12.732;2023-04-25T03:09:45;97426.06;;;7.74;100.00
36242;BME280;22283;42.748;12.732;2023-04-25T03:14:46;97419.28;;;7.83;100.00
36242;BME280;22283;42.748;12.732;2023-04-25T03:19:47;97419.41;;;7.81;100.00
36242;BME280;22283;42.748;12.732;2023-04-25T03:24:49;97439.69;;;7.68;100.00
36242;BME280;22283;42.748;12.732;2023-04-25T03:29:49;97424.88;;;7.54;100.00
36242;BME280;22283;42.748;12.732;2023-04-25T03:34:50;97432.03;;;7.65;100.00
36242;BME280;22283;42.748;12.732;2023-04-25T03:39:51;97434.75;;;7.63;100.00
36242;BME280;22283;42.748;12.732;2023-04-25T03:44:52;97427.38;;;7.69;100.00
36242;BME280;22283;42.748;12.732;2023-04-25T03:49:54;97420.75;;;7.87;100.00
36242;BME280;22283;42.748;12.732;2023-04-25T03:54:57;97402.44;;;7.85;100.00
36242;BME280;22283;42.748;12.732;2023-04-25T03:59:59;97401.59;;;7.85;100.00
36242;BME280;22283;42.748;12.732;2023-04-25T04:05:03;97412.97;;;7.85;100.00
36242;BME280;22283;42.748;12.732;2023-04-25T04:10:04;97413.94;;;7.96;100.00
36242;BME280;22283;42.748;12.732;2023-04-25T04:15:10;97408.25;;;8.02;100.00
36242;BME280;22283;42.748;12.732;2023-04-25T04:20:11;97395.41;;;7.97;100.00
36242;BME280;22283;42.748;12.732;2023-04-25T04:25:14;97401.00;;;8.17;100.00
36242;BME280;22283;42.748;12.732;2023-04-25T04:30:33;97407.09;;;8.17;100.00
36242;BME280;22283;42.748;12.732;2023-04-25T04:35:39;97418.09;;;8.11;100.00
36242;BME280;22283;42.748;12.732;2023-04-25T04:40:42;97404.19;;;8.09;100.00
36242;BME280;22283;42.748;12.732;2023-04-25T04:45:52;97401.56;;;8.09;100.00
36242;BME280;22283;42.748;12.732;2023-04-25T04:51:07;97408.66;;;9.56;100.00
36242;BME280;22283;42.748;12.732;2023-04-25T04:56:16;97402.91;;;11.29;94.88
36242;BME280;22283;42.748;12.732;2023-04-25T05:01:46;97403.53;;;12.78;81.56
36242;BME280;22283;42.748;12.732;2023-04-25T05:06:51;97401.56;;;14.00;72.89
36242;BME280;22283;42.748;12.732;2023-04-25T05:12:15;97407.38;;;14.49;69.76
36242;BME280;22283;42.748;12.732;2023-04-25T05:17:36;97392.09;;;15.38;63.35
36242;BME280;22283;42.748;12.732;2023-04-25T05:22:56;97389.16;;;15.57;62.40
36242;BME280;22283;42.748;12.732;2023-04-25T05:28:25;97392.94;;;15.81;61.09
36242;BME280;22283;42.748;12.732;2023-04-25T05:33:46;97396.91;;;15.68;59.56
36242;BME280;22283;42.748;12.732;2023-04-25T05:38:47;97394.22;;;15.34;63.30
36242;BME280;22283;42.748;12.732;2023-04-25T05:43:48;97397.41;;;15.38;61.85
36242;BME280;22283;42.748;12.732;2023-04-25T05:49:18;97395.66;;;14.07;67.69
36242;BME280;22283;42.748;12.732;2023-04-25T05:54:32;97397.59;;;13.69;73.56
36242;BME280;22283;42.748;12.732;2023-04-25T05:59:33;97407.50;;;14.92;66.66
36242;BME280;22283;42.748;12.732;2023-04-25T06:04:34;97393.38;;;15.25;63.80
36242;BME280;22283;42.748;12.732;2023-04-25T06:09:35;97374.31;;;16.21;60.28
36242;BME280;22283;42.748;12.732;2023-04-25T06:14:36;97382.31;;;16.54;58.55
36242;BME280;22283;42.748;12.732;2023-04-25T06:19:37;97374.16;;;17.36;53.98
36242;BME280;22283;42.748;12.732;2023-04-25T06:24:38;97376.56;;;17.14;58.71
36242;BME280;22283;42.748;12.732;2023-04-25T06:29:39;97375.47;;;16.84;59.57
36242;BME280;22283;42.748;12.732;2023-04-25T06:34:40;97382.97;;;16.07;60.07
36242;BME280;22283;42.748;12.732;2023-04-25T06:39:41;97370.78;;;15.46;64.91
36242;BME280;22283;42.748;12.732;2023-04-25T06:44:42;97381.28;;;15.05;67.31
36242;BME280;22283;42.748;12.732;2023-04-25T06:49:44;97389.63;;;14.58;71.11
36242;BME280;22283;42.748;12.732;2023-04-25T06:54:45;97381.06;;;14.72;71.33
36242;BME280;22283;42.748;12.732;2023-04-25T07:00:09;97394.66;;;14.61;73.21
36242;BME280;22283;42.748;12.732;2023-04-25T07:05:12;97392.16;;;15.54;68.52
36242;BME280;22283;42.748;12.732;2023-04-25T07:10:13;97379.00;;;16.77;60.69
36242;BME280;22283;42.748;12.732;2023-04-25T07:15:14;97377.06;;;17.57;55.82
36242;BME280;22283;42.748;12.732;2023-04-25T07:20:18;97396.25;;;18.00;54.01
36242;BME280;22283;42.748;12.732;2023-04-25T07:25:19;97374.53;;;17.64;54.74
36242;BME280;22283;42.748;12.732;2023-04-25T07:30:21;97382.28;;;17.03;55.59
36242;BME280;22283;42.748;12.732;2023-04-25T07:35:22;97384.66;;;16.41;58.14
36242;BME280;22283;42.748;12.732;2023-04-25T07:40:23;97385.81;;;16.14;60.03
36242;BME280;22283;42.748;12.732;2023-04-25T07:45:28;97398.63;;;15.52;63.60
36242;BME280;22283;42.748;12.732;2023-04-25T07:50:29;97386.72;;;15.30;64.04
36242;BME280;22283;42.748;12.732;2023-04-25T07:55:31;97376.97;;;15.55;64.30
36242;BME280;22283;42.748;12.732;2023-04-25T08:00:38;97383.22;;;15.71;65.59
36242;BME280;22283;42.748;12.732;2023-04-25T08:05:57;97383.31;;;16.04;64.51
36242;BME280;22283;42.748;12.732;2023-04-25T08:11:00;97382.00;;;16.16;60.54
36242;BME280;22283;42.748;12.732;2023-04-25T08:16:01;97387.66;;;16.62;58.61
36242;BME280;22283;42.748;12.732;2023-04-25T08:21:03;97385.63;;;16.97;59.88
36242;BME280;22283;42.748;12.732;2023-04-25T08:26:04;97393.09;;;17.57;59.80
36242;BME280;22283;42.748;12.732;2023-04-25T08:31:08;97371.59;;;17.90;56.15
36242;BME280;22283;42.748;12.732;2023-04-25T08:36:25;97380.34;;;18.30;55.04
36242;BME280;22283;42.748;12.732;2023-04-25T08:41:27;97377.94;;;18.35;53.26
36242;BME280;22283;42.748;12.732;2023-04-25T08:46:28;97385.59;;;18.61;53.31
36242;BME280;22283;42.748;12.732;2023-04-25T08:51:46;97365.44;;;18.88;51.46
36242;BME280;22283;42.748;12.732;2023-04-25T08:56:49;97371.56;;;19.41;51.63
36242;BME280;22283;42.748;12.732;2023-04-25T09:01:50;97378.38;;;19.58;51.01
36242;BME280;22283;42.748;12.732;2023-04-25T09:06:54;97388.94;;;19.75;50.40
36242;BME280;22283;42.748;12.732;2023-04-25T09:11:55;97378.97;;;19.69;51.09
36242;BME280;22283;42.748;12.732;2023-04-25T09:17:00;97377.28;;;19.53;51.27
36242;BME280;22283;42.748;12.732;2023-04-25T09:22:27;97375.44;;;19.53;51.61
36242;BME280;22283;42.748;12.732;2023-04-25T09:27:28;97383.03;;;19.50;51.73
36242;BME280;22283;42.748;12.732;2023-04-25T09:32:50;97365.19;;;19.27;52.35
36242;BME280;22283;42.748;12.732;2023-04-25T09:37:51;97381.63;;;18.95;51.91
36242;BME280;22283;42.748;12.732;2023-04-25T09:43:21;97392.97;;;18.82;51.81
36242;BME280;22283;42.748;12.732;2023-04-25T09:48:25;97387.91;;;18.49;53.42
36242;BME280;22283;42.748;12.732;2023-04-25T09:53:29;97373.13;;;18.30;53.43
36242;BME280;22283;42.748;12.732;2023-04-25T09:58:52;97377.53;;;18.00;54.56
36242;BME280;22283;42.748;12.732;2023-04-25T10:03:56;97380.34;;;17.76;53.69
36242;BME280;22283;42.748;12.732;2023-04-25T10:09:19;97361.09;;;17.41;52.13
36242;BME280;22283;42.748;12.732;2023-04-25T10:14:21;97371.09;;;17.47;53.43
36242;BME280;22283;42.748;12.732;2023-04-25T10:19:23;97372.69;;;17.64;53.96
36242;BME280;22283;42.748;12.732;2023-04-25T10:24:25;97370.63;;;17.83;53.55
36242;BME280;22283;42.748;12.732;2023-04-25T10:29:27;97360.09;;;18.50;52.26
36242;BME280;22283;42.748;12.732;2023-04-25T10:34:41;97336.03;;;19.39;47.40
36242;BME280;22283;42.748;12.732;2023-04-25T10:39:42;97336.69;;;19.92;47.17
36242;BME280;22283;42.748;12.732;2023-04-25T10:45:01;97324.97;;;20.64;45.18
36242;BME280;22283;42.748;12.732;2023-04-25T10:50:08;97328.84;;;20.90;44.88
36242;BME280;22283;42.748;12.732;2023-04-25T10:55:09;97308.50;;;21.43;43.11
36242;BME280;22283;42.748;12.732;2023-04-25T11:00:16;97297.91;;;21.00;42.38
36242;BME280;22283;42.748;12.732;2023-04-25T11:05:32;97288.72;;;20.32;45.74
36242;BME280;22283;42.748;12.732;2023-04-25T11:10:33;97282.09;;;21.19;45.04
36242;BME280;22283;42.748;12.732;2023-04-25T11:15:37;97281.47;;;21.23;44.61
36242;BME280;22283;42.748;12.732;2023-04-25T11:20:37;97278.06;;;20.45;44.30
36242;BME280;22283;42.748;12.732;2023-04-25T11:25:38;97285.53;;;20.22;47.00
36242;BME280;22283;42.748;12.732;2023-04-25T11:30:39;97294.19;;;18.79;52.97
36242;BME280;22283;42.748;12.732;2023-04-25T11:35:40;97293.72;;;18.23;52.35
36242;BME280;22283;42.748;12.732;2023-04-25T11:40:41;97287.34;;;18.24;56.78
36242;BME280;22283;42.748;12.732;2023-04-25T11:45:46;97274.66;;;18.55;54.32
36242;BME280;22283;42.748;12.732;2023-04-25T11:50:47;97255.03;;;18.40;55.00
36242;BME280;22283;42.748;12.732;2023-04-25T11:55:48;97278.59;;;18.30;56.07
36242;BME280;22283;42.748;12.732;2023-04-25T12:00:49;97276.00;;;18.36;60.14
36242;BME280;22283;42.748;12.732;2023-04-25T12:05:49;97264.72;;;18.41;57.87
36242;BME280;22283;42.748;12.732;2023-04-25T12:10:50;97274.81;;;18.68;59.78
36242;BME280;22283;42.748;12.732;2023-04-25T12:15:54;97260.91;;;19.03;61.38
36242;BME280;22283;42.748;12.732;2023-04-25T12:20:55;97252.25;;;18.71;62.93
36242;BME280;22283;42.748;12.732;2023-04-25T12:25:56;97252.88;;;18.88;61.46
36242;BME280;22283;42.748;12.732;2023-04-25T12:31:04;97248.63;;;18.94;54.15
36242;BME280;22283;42.748;12.732;2023-04-25T12:36:05;97227.19;;;19.87;51.49
36242;BME280;22283;42.748;12.732;2023-04-25T12:41:10;97200.94;;;20.39;48.42
36242;BME280;22283;42.748;12.732;2023-04-25T12:46:11;97202.94;;;20.52;48.66
36242;BME280;22283;42.748;12.732;2023-04-25T12:51:12;97219.56;;;20.69;48.78
36242;BME280;22283;42.748;12.732;2023-04-25T12:56:13;97203.44;;;20.69;49.08
36242;BME280;22283;42.748;12.732;2023-04-25T13:01:14;97197.28;;;20.75;47.37
36242;BME280;22283;42.748;12.732;2023-04-25T13:06:15;97192.19;;;20.58;47.94
36242;BME280;22283;42.748;12.732;2023-04-25T13:11:16;97172.97;;;20.55;47.51
36242;BME280;22283;42.748;12.732;2023-04-25T13:16:18;97164.53;;;20.65;46.57
36242;BME280;22283;42.748;12.732;2023-04-25T13:21:21;97162.44;;;19.97;47.53
36242;BME280;22283;42.748;12.732;2023-04-25T13:26:21;97153.97;;;20.56;46.21
36242;BME280;22283;42.748;12.732;2023-04-25T13:31:22;97159.00;;;20.73;48.85
36242;BME280;22283;42.748;12.732;2023-04-25T13:36:24;97158.81;;;20.81;46.41
36242;BME280;22283;42.748;12.732;2023-04-25T13:41:25;97156.31;;;20.73;46.51
36242;BME280;22283;42.748;12.732;2023-04-25T13:46:26;97149.50;;;20.42;48.30
36242;BME280;22283;42.748;12.732;2023-04-25T13:51:27;97145.22;;;20.89;46.58
36242;BME280;22283;42.748;12.732;2023-04-25T13:56:28;97142.53;;;20.48;49.10
36242;BME280;22283;42.748;12.732;2023-04-25T14:01:28;97150.19;;;20.16;47.98
36242;BME280;22283;42.748;12.732;2023-04-25T14:06:31;97160.41;;;19.13;51.01
36242;BME280;22283;42.748;12.732;2023-04-25T14:11:32;97148.16;;;19.26;51.70
36242;BME280;22283;42.748;12.732;2023-04-25T14:16:33;97150.34;;;19.37;52.05
36242;BME280;22283;42.748;12.732;2023-04-25T14:21:34;97142.91;;;19.39;54.07
36242;BME280;22283;42.748;12.732;2023-04-25T14:26:35;97152.97;;;20.01;50.84
36242;BME280;22283;42.748;12.732;2023-04-25T14:31:36;97149.97;;;20.18;48.93
36242;BME280;22283;42.748;12.732;2023-04-25T14:36:37;97140.97;;;19.69;47.67
36242;BME280;22283;42.748;12.732;2023-04-25T14:41:38;97153.00;;;19.58;45.67
36242;BME280;22283;42.748;12.732;2023-04-25T14:46:38;97145.09;;;19.50;44.79
36242;BME280;22283;42.748;12.732;2023-04-25T14:51:39;97151.22;;;18.86;45.23
36242;BME280;22283;42.748;12.732;2023-04-25T14:56:40;97143.09;;;18.80;43.49
36242;BME280;22283;42.748;12.732;2023-04-25T15:01:41;97150.59;;;19.21;44.02
36242;BME280;22283;42.748;12.732;2023-04-25T15:06:41;97160.88;;;18.81;45.62
36242;BME280;22283;42.748;12.732;2023-04-25T15:11:42;97156.94;;;18.68;45.32
36242;BME280;22283;42.748;12.732;2023-04-25T15:16:43;97156.97;;;18.39;45.05
36242;BME280;22283;42.748;12.732;2023-04-25T15:21:44;97157.59;;;17.82;45.19
36242;BME280;22283;42.748;12.732;2023-04-25T15:26:45;97171.53;;;17.92;46.35
36242;BME280;22283;42.748;12.732;2023-04-25T15:31:51;97167.00;;;17.92;46.74
36242;BME280;22283;42.748;12.732;2023-04-25T15:36:52;97173.31;;;18.14;46.50
36242;BME280;22283;42.748;12.732;2023-04-25T15:41:53;97171.19;;;18.25;47.14
36242;BME280;22283;42.748;12.732;2023-04-25T15:46:54;97174.16;;;18.30;46.40
36242;BME280;22283;42.748;12.732;2023-04-25T15:51:54;97174.69;;;18.40;47.54
36242;BME280;22283;42.748;12.732;2023-04-25T15:56:55;97185.41;;;18.10;46.25
36242;BME280;22283;42.748;12.732;2023-04-25T16:01:56;97226.19;;;17.98;46.58
36242;BME280;22283;42.748;12.732;2023-04-25T16:06:58;97279.78;;;16.88;50.92
36242;BME280;22283;42.748;12.732;2023-04-25T16:11:58;97249.16;;;15.37;55.00
36242;BME280;22283;42.748;12.732;2023-04-25T16:16:59;97266.50;;;14.90;56.02
36242;BME280;22283;42.748;12.732;2023-04-25T16:22:00;97277.06;;;14.48;58.11
36242;BME280;22283;42.748;12.732;2023-04-25T16:27:01;97266.53;;;14.64;59.23
36242;BME280;22283;42.748;12.732;2023-04-25T16:32:03;97279.38;;;14.69;58.73
36242;BME280;22283;42.748;12.732;2023-04-25T16:37:04;97280.06;;;14.71;59.45
36242;BME280;22283;42.748;12.732;2023-04-25T16:42:05;97286.81;;;14.91;59.74
36242;BME280;22283;42.748;12.732;2023-04-25T16:47:06;97309.59;;;14.86;59.98
36242;BME280;22283;42.748;12.732;2023-04-25T16:52:06;97327.50;;;14.75;60.67
36242;BME280;22283;42.748;12.732;2023-04-25T16:57:07;97322.31;;;14.66;60.40
36242;BME280;22283;42.748;12.732;2023-04-25T17:02:11;97341.19;;;14.55;62.12
36242;BME280;22283;42.748;12.732;2023-04-25T17:07:13;97343.03;;;14.54;62.26
36242;BME280;22283;42.748;12.732;2023-04-25T17:12:16;97328.28;;;14.42;64.67
36242;BME280;22283;42.748;12.732;2023-04-25T17:17:17;97320.59;;;14.39;61.90
36242;BME280;22283;42.748;12.732;2023-04-25T17:22:20;97326.53;;;14.33;64.13
36242;BME280;22283;42.748;12.732;2023-04-25T17:27:21;97318.06;;;14.11;62.95
36242;BME280;22283;42.748;12.732;2023-04-25T17:32:22;97321.06;;;13.90;63.27
36242;BME280;22283;42.748;12.732;2023-04-25T17:37:23;97333.25;;;13.65;65.76
36242;BME280;22283;42.748;12.732;2023-04-25T17:42:27;97347.63;;;13.55;68.48
36242;BME280;22283;42.748;12.732;2023-04-25T17:47:27;97343.81;;;13.29;69.29
36242;BME280;22283;42.748;12.732;2023-04-25T17:52:28;97354.84;;;13.07;71.06
36242;BME280;22283;42.748;12.732;2023-04-25T17:57:29;97349.50;;;12.79;72.61
36242;BME280;22283;42.748;12.732;2023-04-25T18:02:29;97351.66;;;12.57;74.68
36242;BME280;22283;42.748;12.732;2023-04-25T18:07:31;97353.34;;;12.38;75.38
36242;BME280;22283;42.748;12.732;2023-04-25T18:12:32;97365.94;;;12.26;76.87
36242;BME280;22283;42.748;12.732;2023-04-25T18:17:34;97380.19;;;12.06;81.35
36242;BME280;22283;42.748;12.732;2023-04-25T18:22:39;97386.84;;;11.81;82.34
36242;BME280;22283;42.748;12.732;2023-04-25T18:27:40;97399.00;;;11.84;83.05
36242;BME280;22283;42.748;12.732;2023-04-25T18:32:42;97388.75;;;11.50;86.19
36242;BME280;22283;42.748;12.732;2023-04-25T18:37:42;97408.38;;;11.38;87.69
36242;BME280;22283;42.748;12.732;2023-04-25T18:42:43;97402.66;;;11.32;87.67
36242;BME280;22283;42.748;12.732;2023-04-25T18:47:45;97424.19;;;11.18;89.29
36242;BME280;22283;42.748;12.732;2023-04-25T18:52:46;97429.91;;;11.23;89.46
36242;BME280;22283;42.748;12.732;2023-04-25T18:57:47;97452.03;;;11.13;90.65
36242;BME280;22283;42.748;12.732;2023-04-25T19:02:48;97465.38;;;11.11;91.21
36242;BME280;22283;42.748;12.732;2023-04-25T19:07:48;97459.59;;;10.96;91.70
36242;BME280;22283;42.748;12.732;2023-04-25T19:12:49;97475.53;;;11.06;91.72
36242;BME280;22283;42.748;12.732;2023-04-25T19:17:50;97488.06;;;11.04;92.76
36242;BME280;22283;42.748;12.732;2023-04-25T19:22:51;97490.13;;;10.79;93.79
36242;BME280;22283;42.748;12.732;2023-04-25T19:27:53;97494.84;;;10.55;95.68
36242;BME280;22283;42.748;12.732;2023-04-25T19:32:54;97510.75;;;10.44;96.83
36242;BME280;22283;42.748;12.732;2023-04-25T19:37:58;97503.13;;;10.18;99.40
36242;BME280;22283;42.748;12.732;2023-04-25T19:42:59;97513.50;;;10.10;100.00
36242;BME280;22283;42.748;12.732;2023-04-25T19:48:01;97518.19;;;10.06;99.72
36242;BME280;22283;42.748;12.732;2023-04-25T19:53:03;97517.16;;;9.87;100.00
36242;BME280;22283;42.748;12.732;2023-04-25T19:58:04;97516.19;;;9.76;100.00
36242;BME280;22283;42.748;12.732;2023-04-25T20:03:06;97523.41;;;9.63;100.00
36242;BME280;22283;42.748;12.732;2023-04-25T20:08:07;97518.97;;;9.52;100.00
36242;BME280;22283;42.748;12.732;2023-04-25T20:13:07;97517.66;;;9.35;100.00
36242;BME280;22283;42.748;12.732;2023-04-25T20:18:08;97513.50;;;8.98;100.00
36242;BME280;22283;42.748;12.732;2023-04-25T20:23:09;97522.09;;;8.77;100.00
36242;BME280;22283;42.748;12.732;2023-04-25T20:28:10;97522.34;;;8.74;100.00
36242;BME280;22283;42.748;12.732;2023-04-25T20:33:11;97530.97;;;8.76;100.00
36242;BME280;22283;42.748;12.732;2023-04-25T20:38:12;97530.38;;;8.73;100.00
36242;BME280;22283;42.748;12.732;2023-04-25T20:43:13;97545.31;;;8.61;100.00
36242;BME280;22283;42.748;12.732;2023-04-25T20:48:14;97566.13;;;8.53;100.00
36242;BME280;22283;42.748;12.732;2023-04-25T20:53:15;97559.63;;;8.46;100.00
36242;BME280;22283;42.748;12.732;2023-04-25T20:58:16;97560.09;;;8.40;100.00
36242;BME280;22283;42.748;12.732;2023-04-25T21:03:16;97559.19;;;8.52;100.00
36242;BME280;22283;42.748;12.732;2023-04-25T21:08:17;97548.06;;;8.59;100.00
36242;BME280;22283;42.748;12.732;2023-04-25T21:13:18;97532.25;;;8.35;100.00
36242;BME280;22283;42.748;12.732;2023-04-25T21:18:19;97533.31;;;8.33;100.00
36242;BME280;22283;42.748;12.732;2023-04-25T21:23:20;97530.53;;;8.34;100.00
36242;BME280;22283;42.748;12.732;2023-04-25T21:28:21;97533.63;;;8.04;100.00
36242;BME280;22283;42.748;12.732;2023-04-25T21:33:22;97539.59;;;7.82;100.00
36242;BME280;22283;42.748;12.732;2023-04-25T21:38:23;97538.69;;;7.58;100.00
36242;BME280;22283;42.748;12.732;2023-04-25T21:43:24;97547.13;;;7.50;100.00
36242;BME280;22283;42.748;12.732;2023-04-25T21:48:25;97546.63;;;7.45;100.00
36242;BME280;22283;42.748;12.732;2023-04-25T21:53:25;97532.22;;;7.38;100.00
36242;BME280;22283;42.748;12.732;2023-04-25T21:58:26;97546.50;;;7.47;100.00
36242;BME280;22283;42.748;12.732;2023-04-25T22:03:27;97558.19;;;7.55;100.00
36242;BME280;22283;42.748;12.732;2023-04-25T22:08:28;97549.75;;;7.63;100.00
36242;BME280;22283;42.748;12.732;2023-04-25T22:13:29;97532.09;;;7.52;100.00
36242;BME280;22283;42.748;12.732;2023-04-25T22:18:29;97555.25;;;7.47;100.00
36242;BME280;22283;42.748;12.732;2023-04-25T22:23:30;97558.00;;;7.33;100.00
36242;BME280;22283;42.748;12.732;2023-04-25T22:28:31;97548.53;;;7.30;100.00
36242;BME280;22283;42.748;12.732;2023-04-25T22:33:33;97560.94;;;7.28;100.00
36242;BME280;22283;42.748;12.732;2023-04-25T22:38:34;97552.31;;;7.26;100.00
36242;BME280;22283;42.748;12.732;2023-04-25T22:43:38;97554.84;;;7.15;100.00
36242;BME280;22283;42.748;12.732;2023-04-25T22:48:39;97548.72;;;6.89;100.00
36242;BME280;22283;42.748;12.732;2023-04-25T22:53:42;97566.38;;;6.74;100.00
36242;BME280;22283;42.748;12.732;2023-04-25T22:58:44;97579.56;;;6.60;100.00
36242;BME280;22283;42.748;12.732;2023-04-25T23:03:45;97585.44;;;6.51;100.00
36242;BME280;22283;42.748;12.732;2023-04-25T23:08:46;97596.56;;;6.42;100.00
36242;BME280;22283;42.748;12.732;2023-04-25T23:13:47;97602.84;;;6.39;100.00
36242;BME280;22283;42.748;12.732;2023-04-25T23:18:48;97615.88;;;6.40;100.00
36242;BME280;22283;42.748;12.732;2023-04-25T23:23:49;97612.91;;;6.32;100.00
36242;BME280;22283;42.748;12.732;2023-04-25T23:28:50;97617.72;;;6.26;100.00
36242;BME280;22283;42.748;12.732;2023-04-25T23:33:51;97624.50;;;6.15;100.00
36242;BME280;22283;42.748;12.732;2023-04-25T23:38:52;97625.13;;;6.19;100.00
36242;BME280;22283;42.748;12.732;2023-04-25T23:43:56;97619.91;;;6.05;100.00
36242;BME280;22283;42.748;12.732;2023-04-25T23:48:56;97617.22;;;5.92;100.00
36242;BME280;22283;42.748;12.732;2023-04-25T23:53:57;97626.38;;;5.85;100.00
36242;BME280;22283;42.748;12.732;2023-04-25T23:58:58;97627.31;;;5.70;100.00
